Time;durP1;ratioP1;P1;durP2;ratioP2;P2;SDS_P1;SDS_P2;PMS_P1;PMS_P2;Temp;Humidity;BMP_temperature;BMP_pressure;BME280_temperature;BME280_humidity;BME280_pressure;Samples;Min_cycle;Max_cycle;Signal;HPM_P1;HPM_P2
2021/08/31 00:00:52;;;;;;;30.17;27.93;;;;;;;;;;5054587;28;20767;-83
2021/08/31 00:03:21;;;;;;;30.77;28.67;;;;;;;;;;5054136;28;20860;-83
2021/08/31 00:05:48;;;;;;;28.67;26.30;;;;;;;;;;5054276;28;20507;-83
2021/08/31 00:08:16;;;;;;;30.10;28.00;;;;;;;;;;5054343;28;20439;-83
2021/08/31 00:10:43;;;;;;;30.23;28.20;;;;;;;;;;5053878;28;20442;-83
2021/08/31 00:13:10;;;;;;;30.40;28.40;;;;;;;;;;5054386;28;20809;-83
2021/08/31 00:15:38;;;;;;;29.93;27.83;;;;;;;;;;5054209;28;20804;-83
2021/08/31 00:18:05;;;;;;;29.50;27.60;;;;;;;;;;5053941;28;20428;-83
2021/08/31 00:20:34;;;;;;;30.00;27.90;;;;;;;;;;5054387;28;20435;-83
2021/08/31 00:23:01;;;;;;;30.77;28.50;;;;;;;;;;5054052;28;20413;-83
2021/08/31 00:25:29;;;;;;;30.40;28.17;;;;;;;;;;5054242;28;20411;-83
2021/08/31 00:27:56;;;;;;;32.03;29.73;;;;;;;;;;5053779;28;20477;-83
2021/08/31 00:30:24;;;;;;;30.60;28.60;;;;;;;;;;5053248;28;20420;-83
2021/08/31 00:32:51;;;;;;;30.70;28.50;;;;;;;;;;5053670;28;20473;-83
2021/08/31 00:35:18;;;;;;;31.37;29.17;;;;;;;;;;5053970;28;20422;-83
2021/08/31 00:37:47;;;;;;;30.23;28.03;;;;;;;;;;5053628;28;20918;-83
2021/08/31 00:40:15;;;;;;;30.33;28.23;;;;;;;;;;5053712;28;20905;-83
2021/08/31 00:42:42;;;;;;;31.30;29.17;;;;;;;;;;5053624;28;20521;-83
2021/08/31 00:45:10;;;;;;;30.70;28.30;;;;;;;;;;5053690;28;20467;-83
2021/08/31 00:47:37;;;;;;;30.97;28.67;;;;;;;;;;5053390;28;20937;-83
2021/08/31 00:50:06;;;;;;;29.03;27.07;;;;;;;;;;5035947;28;20453;-83
2021/08/31 00:52:33;;;;;;;31.80;29.40;;;;;;;;;;5053655;28;20447;-83
2021/08/31 00:55:03;;;;;;;31.40;29.10;;;;;;;;;;5053798;28;20435;-83
2021/08/31 00:57:30;;;;;;;32.00;29.60;;;;;;;;;;5053505;28;20451;-83
2021/08/31 00:59:58;;;;;;;33.00;30.47;;;;;;;;;;5053345;28;20455;-83
2021/08/31 01:02:25;;;;;;;32.03;29.83;;;;;;;;;;5053324;28;20452;-83
2021/08/31 01:04:53;;;;;;;31.47;29.27;;;;;;;;;;5053342;28;20480;-82
2021/08/31 01:07:20;;;;;;;32.17;29.73;;;;;;;;;;5053241;28;20438;-83
2021/08/31 01:09:49;;;;;;;32.43;29.70;;;;;;;;;;5053509;28;20430;-83
2021/08/31 01:12:18;;;;;;;32.70;30.10;;;;;;;;;;5053558;28;20440;-83
2021/08/31 01:14:45;;;;;;;31.43;29.10;;;;;;;;;;5053414;28;20418;-83
2021/08/31 01:17:13;;;;;;;33.37;30.87;;;;;;;;;;5053306;28;20426;-83
2021/08/31 01:19:40;;;;;;;31.27;28.97;;;;;;;;;;5053535;28;20421;-83
2021/08/31 01:22:09;;;;;;;33.00;30.60;;;;;;;;;;5053627;28;20432;-83
2021/08/31 01:24:38;;;;;;;33.50;30.90;;;;;;;;;;5053402;28;20460;-83
2021/08/31 01:27:07;;;;;;;33.60;31.03;;;;;;;;;;5053098;28;20888;-83
2021/08/31 01:29:35;;;;;;;31.57;29.30;;;;;;;;;;5053313;28;20493;-83
2021/08/31 01:32:02;;;;;;;30.90;28.60;;;;;;;;;;5053081;28;20425;-83
2021/08/31 01:34:30;;;;;;;34.37;31.77;;;;;;;;;;5052880;28;20450;-83
2021/08/31 01:36:57;;;;;;;31.03;28.53;;;;;;;;;;5053171;28;20430;-83
2021/08/31 01:39:25;;;;;;;34.13;31.20;;;;;;;;;;5053342;28;20486;-83
2021/08/31 01:41:52;;;;;;;34.67;32.20;;;;;;;;;;5054016;28;20420;-83
2021/08/31 01:44:21;;;;;;;33.10;30.30;;;;;;;;;;5056692;28;20475;-83
2021/08/31 01:46:48;;;;;;;33.53;30.67;;;;;;;;;;5056678;28;20518;-83
2021/08/31 01:49:16;;;;;;;34.87;32.00;;;;;;;;;;5056723;28;20448;-83
2021/08/31 01:51:43;;;;;;;34.50;31.70;;;;;;;;;;5056577;28;20405;-83
2021/08/31 01:54:11;;;;;;;36.20;33.20;;;;;;;;;;5056750;28;20440;-83
2021/08/31 01:56:39;;;;;;;35.20;32.40;;;;;;;;;;5056454;28;20898;-83
2021/08/31 01:59:06;;;;;;;33.53;30.53;;;;;;;;;;5056369;28;20414;-83
2021/08/31 02:01:35;;;;;;;33.27;30.73;;;;;;;;;;5056792;28;20439;-83
2021/08/31 02:04:04;;;;;;;34.93;32.13;;;;;;;;;;5056373;28;20509;-83
2021/08/31 02:06:31;;;;;;;33.83;31.00;;;;;;;;;;5056486;28;20453;-83
2021/08/31 02:08:59;;;;;;;34.90;31.87;;;;;;;;;;5056437;28;20446;-83
2021/08/31 02:11:28;;;;;;;34.47;31.60;;;;;;;;;;5056568;28;20416;-83
2021/08/31 02:13:55;;;;;;;34.93;32.33;;;;;;;;;;5055824;28;20442;-83
2021/08/31 02:16:23;;;;;;;34.77;31.93;;;;;;;;;;5056240;28;20758;-83
2021/08/31 02:18:51;;;;;;;35.77;32.60;;;;;;;;;;5056430;28;20437;-83
2021/08/31 02:21:19;;;;;;;32.67;30.17;;;;;;;;;;5056419;28;20442;-83
2021/08/31 02:23:46;;;;;;;35.90;32.80;;;;;;;;;;5038243;28;20428;-83
2021/08/31 02:26:14;;;;;;;37.00;34.00;;;;;;;;;;5056234;28;20413;-83
2021/08/31 02:28:41;;;;;;;36.50;33.57;;;;;;;;;;5056123;28;20815;-83
2021/08/31 02:31:09;;;;;;;35.00;32.13;;;;;;;;;;5055961;28;20467;-83
2021/08/31 02:33:36;;;;;;;36.23;33.33;;;;;;;;;;5055519;28;20482;-83
2021/08/31 02:36:05;;;;;;;36.07;33.13;;;;;;;;;;5055598;28;20417;-83
2021/08/31 02:38:32;;;;;;;35.37;32.77;;;;;;;;;;5055613;28;20412;-82
2021/08/31 02:41:00;;;;;;;36.37;33.57;;;;;;;;;;5055612;28;20424;-83
2021/08/31 02:43:27;;;;;;;35.57;32.83;;;;;;;;;;5055684;28;20434;-83
2021/08/31 02:45:54;;;;;;;35.73;32.90;;;;;;;;;;5038030;28;20600;-83
2021/08/31 02:48:22;;;;;;;33.40;30.80;;;;;;;;;;5055939;28;20444;-83
2021/08/31 02:50:49;;;;;;;34.63;32.03;;;;;;;;;;5055750;28;20435;-83
2021/08/31 02:53:18;;;;;;;34.00;31.20;;;;;;;;;;5054928;28;20427;-83
2021/08/31 02:55:45;;;;;;;32.93;30.50;;;;;;;;;;5055634;28;20409;-83
2021/08/31 02:58:13;;;;;;;34.10;31.37;;;;;;;;;;5055451;28;20958;-83
2021/08/31 03:00:42;;;;;;;34.70;32.00;;;;;;;;;;5055737;28;20768;-83
2021/08/31 03:03:10;;;;;;;34.50;31.67;;;;;;;;;;5055332;28;20446;-82
2021/08/31 03:05:37;;;;;;;36.53;33.43;;;;;;;;;;5055460;28;20887;-83
2021/08/31 03:08:05;;;;;;;36.70;33.60;;;;;;;;;;5055463;28;20417;-83
2021/08/31 03:10:34;;;;;;;35.07;32.50;;;;;;;;;;5055423;28;20413;-83
2021/08/31 03:13:01;;;;;;;36.27;33.27;;;;;;;;;;5055138;28;20409;-83
2021/08/31 03:15:28;;;;;;;37.73;34.50;;;;;;;;;;5055390;28;20453;-83
2021/08/31 03:17:56;;;;;;;38.30;35.30;;;;;;;;;;5055008;28;20413;-83
2021/08/31 03:20:23;;;;;;;37.90;34.50;;;;;;;;;;5054925;28;20450;-83
2021/08/31 03:22:51;;;;;;;39.10;35.70;;;;;;;;;;5055231;28;20440;-82
2021/08/31 03:25:18;;;;;;;38.00;34.90;;;;;;;;;;5054997;28;20457;-83
2021/08/31 03:27:47;;;;;;;38.27;35.10;;;;;;;;;;5055162;28;20413;-83
2021/08/31 03:30:17;;;;;;;37.20;34.20;;;;;;;;;;5037218;28;20446;-83
2021/08/31 03:32:44;;;;;;;36.33;33.33;;;;;;;;;;5054705;28;20445;-83
2021/08/31 03:35:12;;;;;;;38.30;35.27;;;;;;;;;;5054635;28;20417;-83
2021/08/31 03:37:39;;;;;;;38.60;35.40;;;;;;;;;;5037062;28;20504;-83
2021/08/31 03:40:07;;;;;;;40.00;36.50;;;;;;;;;;5054529;28;20895;-83
2021/08/31 03:42:35;;;;;;;36.97;33.77;;;;;;;;;;5054411;28;20418;-83
2021/08/31 03:45:04;;;;;;;39.03;35.70;;;;;;;;;;5054317;28;20486;-83
2021/08/31 03:47:31;;;;;;;38.80;35.40;;;;;;;;;;5054679;28;20888;-83
2021/08/31 03:49:59;;;;;;;38.00;34.60;;;;;;;;;;5054263;28;20417;-83
2021/08/31 03:52:26;;;;;;;37.17;34.17;;;;;;;;;;5054716;28;20414;-83
2021/08/31 03:54:54;;;;;;;38.53;35.20;;;;;;;;;;5054042;28;20893;-83
2021/08/31 03:57:21;;;;;;;40.73;37.17;;;;;;;;;;5054098;28;20438;-83
2021/08/31 03:59:48;;;;;;;39.30;35.83;;;;;;;;;;5054112;28;20439;-83
2021/08/31 04:02:18;;;;;;;39.10;35.70;;;;;;;;;;5054077;28;20439;-83
2021/08/31 04:04:45;;;;;;;39.80;36.17;;;;;;;;;;5053658;28;20490;-83
2021/08/31 04:07:12;;;;;;;38.87;35.20;;;;;;;;;;5053877;28;20438;-83
2021/08/31 04:09:40;;;;;;;37.77;34.67;;;;;;;;;;5054361;28;20422;-83
2021/08/31 04:12:07;;;;;;;41.43;38.03;;;;;;;;;;5053944;28;20891;-83
2021/08/31 04:14:35;;;;;;;40.07;36.77;;;;;;;;;;5054297;28;20446;-83
2021/08/31 04:17:02;;;;;;;38.03;34.60;;;;;;;;;;5054153;28;20446;-83
2021/08/31 04:19:31;;;;;;;39.93;36.40;;;;;;;;;;5054317;28;20477;-83
2021/08/31 04:21:58;;;;;;;39.83;36.37;;;;;;;;;;5036184;28;20417;-83
2021/08/31 04:24:26;;;;;;;40.67;37.27;;;;;;;;;;5054214;28;20477;-83
2021/08/31 04:26:53;;;;;;;41.27;37.47;;;;;;;;;;5054005;28;20410;-84
2021/08/31 04:29:20;;;;;;;39.80;36.17;;;;;;;;;;5054541;28;20454;-83
2021/08/31 04:31:48;;;;;;;45.80;41.57;;;;;;;;;;5054002;28;20435;-83
2021/08/31 04:34:15;;;;;;;44.17;40.37;;;;;;;;;;5053422;28;20807;-83
2021/08/31 04:36:44;;;;;;;43.53;39.57;;;;;;;;;;5054336;28;20820;-83
2021/08/31 04:39:11;;;;;;;42.40;38.70;;;;;;;;;;5053885;28;20441;-83
2021/08/31 04:41:39;;;;;;;45.97;41.63;;;;;;;;;;5053396;28;20424;-83
2021/08/31 04:44:06;;;;;;;46.70;42.33;;;;;;;;;;5053726;28;20497;-83
2021/08/31 04:46:34;;;;;;;50.33;45.73;;;;;;;;;;5053758;28;20476;-83
2021/08/31 04:49:01;;;;;;;51.70;46.50;;;;;;;;;;5053696;28;20413;-83
2021/08/31 04:51:28;;;;;;;53.00;47.60;;;;;;;;;;5053875;28;20443;-83
2021/08/31 04:53:57;;;;;;;52.57;47.37;;;;;;;;;;5053347;28;20863;-83
2021/08/31 04:56:25;;;;;;;53.77;48.37;;;;;;;;;;5054124;28;20442;-83
2021/08/31 04:58:52;;;;;;;49.73;45.03;;;;;;;;;;5053754;28;20413;-83
2021/08/31 05:01:19;;;;;;;53.87;48.07;;;;;;;;;;5053568;28;20439;-83
2021/08/31 05:03:47;;;;;;;50.30;45.03;;;;;;;;;;5053151;28;20516;-83
2021/08/31 05:06:15;;;;;;;51.87;46.50;;;;;;;;;;5054653;28;20461;-78
2021/08/31 05:08:42;;;;;;;51.60;46.40;;;;;;;;;;5053519;28;20434;-78
2021/08/31 05:11:11;;;;;;;51.13;45.83;;;;;;;;;;5053133;28;20926;-77
2021/08/31 05:13:40;;;;;;;49.93;44.77;;;;;;;;;;5053550;28;20413;-83
2021/08/31 05:16:08;;;;;;;47.47;42.90;;;;;;;;;;5053368;28;20413;-83
2021/08/31 05:18:36;;;;;;;47.77;42.93;;;;;;;;;;5057070;28;20405;-78
2021/08/31 05:21:05;;;;;;;48.87;43.80;;;;;;;;;;5057939;28;20471;-78
2021/08/31 05:23:33;;;;;;;49.20;44.60;;;;;;;;;;5057166;28;20431;-78
2021/08/31 05:26:00;;;;;;;48.57;43.90;;;;;;;;;;5056926;28;20468;-83
2021/08/31 05:28:29;;;;;;;52.23;46.87;;;;;;;;;;5039218;28;20442;-83
2021/08/31 05:30:57;;;;;;;49.50;44.40;;;;;;;;;;5057555;28;20423;-79
2021/08/31 05:33:24;;;;;;;48.73;43.87;;;;;;;;;;5056629;28;20473;-78
2021/08/31 05:35:51;;;;;;;46.53;42.10;;;;;;;;;;5056823;28;20938;-78
2021/08/31 05:38:19;;;;;;;46.70;42.00;;;;;;;;;;5057127;28;20833;-83
2021/08/31 05:40:46;;;;;;;46.03;41.67;;;;;;;;;;5057262;28;20402;-83
2021/08/31 05:43:14;;;;;;;44.17;39.97;;;;;;;;;;5056955;28;20427;-84
2021/08/31 05:45:43;;;;;;;45.00;40.70;;;;;;;;;;5056921;28;20511;-78
2021/08/31 05:48:10;;;;;;;44.43;40.23;;;;;;;;;;5056859;28;20454;-78
2021/08/31 05:50:37;;;;;;;43.03;38.60;;;;;;;;;;5056904;28;20421;-78
2021/08/31 05:53:05;;;;;;;43.37;38.97;;;;;;;;;;5056497;28;20444;-78
2021/08/31 05:55:32;;;;;;;43.33;38.97;;;;;;;;;;5056632;28;20437;-79
2021/08/31 05:57:59;;;;;;;44.57;40.33;;;;;;;;;;5056683;28;20416;-79
2021/08/31 06:00:27;;;;;;;43.53;39.63;;;;;;;;;;5056362;28;20838;-80
2021/08/31 06:02:57;;;;;;;44.83;40.33;;;;;;;;;;5056356;28;20477;-79
2021/08/31 06:05:24;;;;;;;44.17;39.97;;;;;;;;;;5056471;28;20509;-79
2021/08/31 06:07:52;;;;;;;45.40;40.90;;;;;;;;;;5056060;28;20443;-79
2021/08/31 06:10:20;;;;;;;41.83;38.00;;;;;;;;;;5056270;28;20427;-79
2021/08/31 06:12:47;;;;;;;43.60;39.50;;;;;;;;;;5055965;28;20438;-79
2021/08/31 06:15:15;;;;;;;43.13;39.03;;;;;;;;;;5056084;28;20443;-78
2021/08/31 06:17:42;;;;;;;39.87;35.93;;;;;;;;;;5056247;28;20438;-78
2021/08/31 06:20:12;;;;;;;43.80;39.70;;;;;;;;;;5055910;28;20439;-79
2021/08/31 06:22:39;;;;;;;42.53;38.77;;;;;;;;;;5056224;28;20418;-79
2021/08/31 06:25:07;;;;;;;41.53;37.63;;;;;;;;;;5056088;28;21091;-79
2021/08/31 06:27:35;;;;;;;42.00;38.13;;;;;;;;;;5055858;28;20895;-79
2021/08/31 06:30:02;;;;;;;41.60;37.90;;;;;;;;;;5055110;28;20442;-79
2021/08/31 06:32:30;;;;;;;41.93;37.93;;;;;;;;;;5055825;28;20404;-79
2021/08/31 06:34:57;;;;;;;44.70;40.70;;;;;;;;;;5056046;28;20416;-79
2021/08/31 06:37:26;;;;;;;42.40;38.40;;;;;;;;;;5055831;28;20854;-79
2021/08/31 06:39:53;;;;;;;43.83;39.87;;;;;;;;;;5055792;28;20405;-79
2021/08/31 06:42:21;;;;;;;42.40;38.23;;;;;;;;;;5056060;28;20406;-79
2021/08/31 06:44:48;;;;;;;45.47;41.17;;;;;;;;;;5055958;28;20439;-79
2021/08/31 06:47:15;;;;;;;43.40;39.20;;;;;;;;;;5055362;28;20487;-79
2021/08/31 06:49:43;;;;;;;44.10;39.90;;;;;;;;;;5055665;28;20530;-79
2021/08/31 06:52:10;;;;;;;44.23;39.93;;;;;;;;;;5055513;28;20421;-79
2021/08/31 06:54:39;;;;;;;48.87;43.70;;;;;;;;;;5055248;28;20443;-78
2021/08/31 06:57:07;;;;;;;45.97;41.23;;;;;;;;;;5055493;28;20939;-79
2021/08/31 06:59:34;;;;;;;46.57;42.17;;;;;;;;;;5055520;28;20421;-79
2021/08/31 07:02:01;;;;;;;44.87;40.43;;;;;;;;;;5055029;28;20507;-79
2021/08/31 07:04:29;;;;;;;45.03;40.60;;;;;;;;;;5055046;28;20449;-79
2021/08/31 07:06:56;;;;;;;44.70;40.57;;;;;;;;;;5055476;28;20509;-79
2021/08/31 07:09:23;;;;;;;48.33;43.73;;;;;;;;;;5055154;28;20413;-79
2021/08/31 07:11:54;;;;;;;43.47;39.53;;;;;;;;;;5055123;28;20424;-79
2021/08/31 07:14:22;;;;;;;45.33;40.07;;;;;;;;;;5054784;28;20456;-79
2021/08/31 07:16:49;;;;;;;42.90;38.80;;;;;;;;;;5055226;28;20435;-78
2021/08/31 07:19:16;;;;;;;40.93;37.20;;;;;;;;;;5054783;28;20419;-79
2021/08/31 07:21:45;;;;;;;42.23;38.00;;;;;;;;;;5055038;28;20916;-79
2021/08/31 07:24:12;;;;;;;40.77;36.80;;;;;;;;;;5054560;28;20975;-79
2021/08/31 07:26:39;;;;;;;41.17;37.63;;;;;;;;;;5054922;28;20453;-79
2021/08/31 07:29:08;;;;;;;38.37;34.97;;;;;;;;;;5054594;28;20478;-79
2021/08/31 07:31:36;;;;;;;37.33;34.03;;;;;;;;;;5054717;28;20426;-79
2021/08/31 07:34:03;;;;;;;38.83;35.53;;;;;;;;;;5054490;28;20488;-79
2021/08/31 07:36:30;;;;;;;39.50;36.30;;;;;;;;;;5054687;28;20425;-79
2021/08/31 07:38:58;;;;;;;37.47;34.27;;;;;;;;;;5054471;28;20424;-79
2021/08/31 07:41:27;;;;;;;37.83;34.70;;;;;;;;;;5054560;28;20510;-79
2021/08/31 07:43:55;;;;;;;39.50;35.83;;;;;;;;;;5054444;28;20795;-79
2021/08/31 07:46:23;;;;;;;34.70;31.70;;;;;;;;;;5054218;28;20961;-79
2021/08/31 07:48:51;;;;;;;36.43;33.37;;;;;;;;;;5054245;28;20425;-79
2021/08/31 07:51:18;;;;;;;36.40;33.53;;;;;;;;;;5054175;28;20439;-93
2021/08/31 07:53:46;;;;;;;34.73;32.03;;;;;;;;;;5054001;28;20443;-79
2021/08/31 07:56:13;;;;;;;34.07;31.37;;;;;;;;;;5053988;28;21026;-79
2021/08/31 07:58:41;;;;;;;34.63;31.73;;;;;;;;;;5054407;28;20760;-79
2021/08/31 08:01:08;;;;;;;38.20;34.83;;;;;;;;;;5054214;28;20403;-81
2021/08/31 08:03:37;;;;;;;35.30;32.37;;;;;;;;;;5054258;28;20467;-80
2021/08/31 08:06:04;;;;;;;36.27;33.30;;;;;;;;;;5054112;28;20495;-80
2021/08/31 08:08:32;;;;;;;33.33;30.60;;;;;;;;;;5053969;28;20460;-80
2021/08/31 08:10:59;;;;;;;36.37;33.27;;;;;;;;;;5054237;28;20797;-80
2021/08/31 08:13:26;;;;;;;34.57;31.87;;;;;;;;;;5054000;28;20451;-80
2021/08/31 08:15:54;;;;;;;33.13;30.53;;;;;;;;;;5054205;28;20445;-80
2021/08/31 08:18:21;;;;;;;34.00;31.40;;;;;;;;;;5054252;28;20435;-80
2021/08/31 08:20:50;;;;;;;35.10;32.10;;;;;;;;;;5054066;28;20435;-80
2021/08/31 08:23:17;;;;;;;34.57;31.83;;;;;;;;;;5053826;28;20416;-80
2021/08/31 08:25:45;;;;;;;34.90;32.10;;;;;;;;;;5054090;28;20503;-80
2021/08/31 08:28:12;;;;;;;34.60;31.90;;;;;;;;;;5053928;28;20447;-80
2021/08/31 08:30:39;;;;;;;33.50;31.00;;;;;;;;;;5053616;28;20437;-80
2021/08/31 08:33:07;;;;;;;33.17;30.77;;;;;;;;;;5035370;28;20985;-80
2021/08/31 08:35:34;;;;;;;32.70;30.20;;;;;;;;;;5053513;28;20448;-80
2021/08/31 08:38:03;;;;;;;32.40;30.00;;;;;;;;;;5053369;28;20446;-79
2021/08/31 08:40:34;;;;;;;32.40;30.00;;;;;;;;;;5053847;28;20418;-80
2021/08/31 08:43:03;;;;;;;32.47;30.17;;;;;;;;;;5053800;28;20446;-79
2021/08/31 08:45:30;;;;;;;32.90;30.50;;;;;;;;;;5053665;28;20410;-80
2021/08/31 08:47:57;;;;;;;33.60;31.10;;;;;;;;;;5053349;28;20908;-80
2021/08/31 08:50:24;;;;;;;33.83;31.27;;;;;;;;;;5053731;28;20443;-79
2021/08/31 08:52:52;;;;;;;31.97;29.50;;;;;;;;;;5052897;28;20405;-80
2021/08/31 08:55:24;;;;;;;32.53;30.20;;;;;;;;;;5053508;28;20435;-80
2021/08/31 08:57:52;;;;;;;30.77;28.47;;;;;;;;;;5053706;28;20445;-79
2021/08/31 09:00:20;;;;;;;32.10;29.70;;;;;;;;;;5053276;28;20410;-80
2021/08/31 09:02:47;;;;;;;32.43;29.73;;;;;;;;;;5053017;28;20829;-88
2021/08/31 09:05:30;;;;;;;32.30;29.80;;;;;;;;;;5053794;28;20441;-80
2021/08/31 09:08:04;;;;;;;32.70;30.17;;;;;;;;;;5053130;28;20476;-80
2021/08/31 09:10:33;;;;;;;32.80;30.07;;;;;;;;;;5053186;28;20447;-80
2021/08/31 09:13:01;;;;;;;32.20;29.80;;;;;;;;;;5053052;28;20417;-80
2021/08/31 09:15:29;;;;;;;31.37;28.87;;;;;;;;;;5053102;28;20779;-80
2021/08/31 09:18:25;;;;;;;32.70;30.20;;;;;;;;;;5052953;28;20424;-81
2021/08/31 09:21:02;;;;;;;30.23;27.67;;;;;;;;;;4992603;28;21015;-81
2021/08/31 09:23:30;;;;;;;30.77;28.37;;;;;;;;;;4992173;28;20505;-80
2021/08/31 09:26:06;;;;;;;31.83;29.30;;;;;;;;;;4991679;28;20800;-80
2021/08/31 09:28:34;;;;;;;31.03;28.73;;;;;;;;;;4991814;28;20949;-80
2021/08/31 09:31:03;;;;;;;31.63;29.33;;;;;;;;;;4991964;28;20444;-81
2021/08/31 09:33:31;;;;;;;30.33;28.10;;;;;;;;;;4991545;28;20462;-84
2021/08/31 09:36:03;;;;;;;31.20;28.97;;;;;;;;;;4991741;28;20445;-80
2021/08/31 09:38:39;;;;;;;30.50;28.20;;;;;;;;;;4991669;28;20439;-80
2021/08/31 09:41:08;;;;;;;29.83;27.73;;;;;;;;;;4991836;28;20803;-80
2021/08/31 09:43:37;;;;;;;28.60;26.60;;;;;;;;;;4991561;28;20555;-81
2021/08/31 09:46:04;;;;;;;30.27;27.97;;;;;;;;;;4991680;28;20779;-80
2021/08/31 09:48:32;;;;;;;29.53;27.13;;;;;;;;;;4992015;28;20451;-80
2021/08/31 09:50:59;;;;;;;30.97;28.57;;;;;;;;;;4991967;28;20903;-79
2021/08/31 09:53:27;;;;;;;28.87;26.80;;;;;;;;;;4991525;28;20771;-79
2021/08/31 09:56:06;;;;;;;30.10;27.90;;;;;;;;;;5004725;28;20788;-79
2021/08/31 09:58:36;;;;;;;28.63;26.53;;;;;;;;;;5052734;28;20409;-79
2021/08/31 10:01:04;;;;;;;28.70;26.67;;;;;;;;;;5053047;28;20558;-79
2021/08/31 10:03:33;;;;;;;29.10;26.83;;;;;;;;;;5053252;28;20796;-79
2021/08/31 10:06:01;;;;;;;28.83;26.67;;;;;;;;;;5056651;28;20417;-79
2021/08/31 10:08:32;;;;;;;30.07;27.87;;;;;;;;;;5056666;28;20767;-79
2021/08/31 10:11:01;;;;;;;30.53;28.23;;;;;;;;;;5056175;28;20440;-79
2021/08/31 10:13:29;;;;;;;28.97;26.87;;;;;;;;;;5056249;28;20828;-79
2021/08/31 10:15:58;;;;;;;27.87;25.93;;;;;;;;;;5056599;28;20442;-79
2021/08/31 10:18:27;;;;;;;28.27;26.07;;;;;;;;;;5056528;28;20436;-79
2021/08/31 10:20:55;;;;;;;26.43;24.70;;;;;;;;;;5056262;28;20437;-79
2021/08/31 10:23:26;;;;;;;24.93;23.13;;;;;;;;;;5056031;28;20913;-79
2021/08/31 10:25:54;;;;;;;25.40;23.70;;;;;;;;;;5055815;28;20458;-79
2021/08/31 10:28:23;;;;;;;26.10;24.30;;;;;;;;;;5055881;28;20461;-80
2021/08/31 10:30:50;;;;;;;26.57;24.77;;;;;;;;;;5056076;28;20413;-79
2021/08/31 10:33:33;;;;;;;25.43;23.83;;;;;;;;;;5055740;28;20486;-79
2021/08/31 10:36:00;;;;;;;26.13;24.33;;;;;;;;;;5055697;28;20487;-79
2021/08/31 10:38:44;;;;;;;26.33;24.63;;;;;;;;;;5055954;28;20440;-79
2021/08/31 10:41:26;;;;;;;25.27;23.57;;;;;;;;;;5055825;28;20418;-79
2021/08/31 10:43:56;;;;;;;26.20;24.10;;;;;;;;;;5055262;28;20472;-79
2021/08/31 10:46:23;;;;;;;26.90;25.10;;;;;;;;;;5055437;28;20799;-79
2021/08/31 10:49:02;;;;;;;28.20;26.30;;;;;;;;;;5055423;28;20440;-79
2021/08/31 10:51:29;;;;;;;27.17;25.30;;;;;;;;;;5055740;28;20421;-84
2021/08/31 10:53:57;;;;;;;26.17;24.43;;;;;;;;;;5055671;28;20439;-79
2021/08/31 10:56:28;;;;;;;28.17;26.17;;;;;;;;;;5055245;28;20534;-80
2021/08/31 10:58:56;;;;;;;28.47;26.57;;;;;;;;;;5055306;28;20530;-80
2021/08/31 11:01:24;;;;;;;28.77;26.77;;;;;;;;;;5055594;28;20418;-80
2021/08/31 11:03:52;;;;;;;25.50;23.80;;;;;;;;;;5055495;28;20442;-80
2021/08/31 11:06:34;;;;;;;27.33;25.50;;;;;;;;;;5054986;28;20472;-80
2021/08/31 11:09:16;;;;;;;29.40;27.40;;;;;;;;;;5054921;28;20398;-80
2021/08/31 11:11:45;;;;;;;27.43;25.53;;;;;;;;;;5052394;28;20458;-80
2021/08/31 11:14:14;;;;;;;27.70;25.60;;;;;;;;;;5054561;28;20437;-80
2021/08/31 11:16:42;;;;;;;29.10;27.00;;;;;;;;;;5037282;28;20501;-80
2021/08/31 11:19:23;;;;;;;27.87;25.93;;;;;;;;;;5055139;28;20445;-83
2021/08/31 11:21:52;;;;;;;27.60;25.70;;;;;;;;;;5055191;28;20434;-80
2021/08/31 11:24:20;;;;;;;27.97;26.00;;;;;;;;;;5054687;28;20793;-80
2021/08/31 11:26:47;;;;;;;26.80;25.07;;;;;;;;;;5055096;28;20472;-80
2021/08/31 11:29:15;;;;;;;27.13;25.27;;;;;;;;;;5054877;28;20527;-80
2021/08/31 11:31:42;;;;;;;26.60;24.80;;;;;;;;;;5054964;28;20790;-80
2021/08/31 11:34:13;;;;;;;27.57;25.67;;;;;;;;;;5054683;28;20487;-80
2021/08/31 11:36:41;;;;;;;27.47;25.67;;;;;;;;;;5054532;28;20425;-80
2021/08/31 11:39:11;;;;;;;27.43;25.67;;;;;;;;;;5054582;28;20764;-79
2021/08/31 11:41:39;;;;;;;28.47;26.60;;;;;;;;;;5054357;28;20432;-80
2021/08/31 11:44:12;;;;;;;26.80;25.10;;;;;;;;;;5054498;28;20764;-80
2021/08/31 11:46:40;;;;;;;27.23;24.67;;;;;;;;;;5054306;28;20432;-80
2021/08/31 11:49:13;;;;;;;26.60;24.90;;;;;;;;;;5054730;28;20456;-80
2021/08/31 11:51:41;;;;;;;26.70;25.10;;;;;;;;;;5054242;28;20992;-80
2021/08/31 11:54:11;;;;;;;27.20;25.20;;;;;;;;;;5054718;28;20411;-80
2021/08/31 11:56:39;;;;;;;26.00;24.23;;;;;;;;;;5054168;28;20923;-80
2021/08/31 11:59:07;;;;;;;25.63;24.13;;;;;;;;;;5054455;28;20481;-80
2021/08/31 12:01:35;;;;;;;27.30;25.40;;;;;;;;;;5054407;28;20437;-80
2021/08/31 12:04:18;;;;;;;26.53;24.73;;;;;;;;;;5054470;28;20464;-80
2021/08/31 12:06:46;;;;;;;27.27;25.50;;;;;;;;;;5054232;28;20447;-79
2021/08/31 12:09:17;;;;;;;26.13;24.33;;;;;;;;;;5054249;28;20448;-80
2021/08/31 12:11:45;;;;;;;28.00;26.10;;;;;;;;;;5053921;28;20478;-80
2021/08/31 12:14:16;;;;;;;28.17;26.10;;;;;;;;;;5054039;28;20437;-79
2021/08/31 12:16:43;;;;;;;27.10;25.27;;;;;;;;;;5054080;28;20437;-80
2021/08/31 12:19:17;;;;;;;26.50;24.60;;;;;;;;;;5054062;28;20441;-80
2021/08/31 12:21:45;;;;;;;26.07;24.10;;;;;;;;;;5054349;28;20433;-80
2021/08/31 12:24:14;;;;;;;25.40;23.80;;;;;;;;;;5053696;28;20751;-80
2021/08/31 12:26:42;;;;;;;26.47;24.80;;;;;;;;;;5052203;28;20490;-80
2021/08/31 12:29:11;;;;;;;25.97;24.37;;;;;;;;;;5053891;28;20437;-80
2021/08/31 12:31:39;;;;;;;27.70;25.90;;;;;;;;;;5053961;28;20470;-80
2021/08/31 12:34:21;;;;;;;27.83;25.93;;;;;;;;;;5053539;28;20566;-80
2021/08/31 12:36:49;;;;;;;27.53;25.73;;;;;;;;;;5053178;28;20460;-79
2021/08/31 12:39:25;;;;;;;26.57;24.87;;;;;;;;;;5053832;28;20953;-78
2021/08/31 12:41:54;;;;;;;27.93;26.00;;;;;;;;;;5053833;28;20445;-79
2021/08/31 12:44:23;;;;;;;27.60;25.70;;;;;;;;;;5053676;28;20449;-79
2021/08/31 12:46:52;;;;;;;28.03;26.13;;;;;;;;;;5053503;28;20411;-79
2021/08/31 12:49:22;;;;;;;27.07;25.03;;;;;;;;;;5054497;28;20770;-78
2021/08/31 12:51:50;;;;;;;25.63;24.00;;;;;;;;;;5053908;28;20495;-79
2021/08/31 12:54:24;;;;;;;25.60;23.90;;;;;;;;;;5053406;28;20459;-78
2021/08/31 12:56:52;;;;;;;26.53;24.70;;;;;;;;;;5053913;28;20761;-78
2021/08/31 12:59:30;;;;;;;26.40;24.70;;;;;;;;;;5053424;28;20481;-79
2021/08/31 13:01:58;;;;;;;26.93;24.77;;;;;;;;;;5053677;28;20445;-78
2021/08/31 13:04:25;;;;;;;26.63;24.63;;;;;;;;;;5053630;28;20443;-78
2021/08/31 13:07:03;;;;;;;25.10;23.50;;;;;;;;;;5053546;28;20444;-78
2021/08/31 13:09:30;;;;;;;25.00;23.20;;;;;;;;;;5053628;28;20434;-78
2021/08/31 13:11:57;;;;;;;25.97;24.37;;;;;;;;;;5053223;28;20895;-79
2021/08/31 13:14:27;;;;;;;25.40;23.80;;;;;;;;;;5053207;28;20449;-78
2021/08/31 13:16:56;;;;;;;25.47;23.77;;;;;;;;;;5053540;28;20449;-79
2021/08/31 13:19:24;;;;;;;26.03;24.43;;;;;;;;;;5053761;28;20449;-81
2021/08/31 13:21:52;;;;;;;24.63;23.20;;;;;;;;;;5053769;28;20440;-77
2021/08/31 13:24:19;;;;;;;25.33;23.73;;;;;;;;;;5053287;28;20889;-77
2021/08/31 13:26:47;;;;;;;25.73;24.20;;;;;;;;;;5053660;28;20487;-82
2021/08/31 13:29:15;;;;;;;25.30;23.50;;;;;;;;;;5053353;28;20984;-81
2021/08/31 13:31:44;;;;;;;24.97;23.27;;;;;;;;;;5053291;28;20936;-86
2021/08/31 13:34:12;;;;;;;24.97;23.37;;;;;;;;;;5052907;28;20508;-82
2021/08/31 13:36:40;;;;;;;24.77;23.17;;;;;;;;;;5053716;28;20434;-86
2021/08/31 13:39:08;;;;;;;25.07;23.47;;;;;;;;;;5056789;28;20446;-82
2021/08/31 13:41:35;;;;;;;24.77;23.17;;;;;;;;;;5058233;28;20434;-90
2021/08/31 13:44:03;;;;;;;23.80;22.23;;;;;;;;;;5057137;28;20437;-85
2021/08/31 13:46:31;;;;;;;25.07;23.27;;;;;;;;;;5040096;28;20416;-85
2021/08/31 13:49:01;;;;;;;24.70;23.10;;;;;;;;;;5057657;28;20609;-88
2021/08/31 13:51:28;;;;;;;24.20;22.70;;;;;;;;;;5057432;28;20432;-86
2021/08/31 13:53:56;;;;;;;24.40;22.90;;;;;;;;;;5057855;28;20457;-87
2021/08/31 13:56:23;;;;;;;23.60;22.20;;;;;;;;;;5057612;28;20811;-87
2021/08/31 13:58:50;;;;;;;23.47;22.07;;;;;;;;;;5039296;28;20459;-84
2021/08/31 14:01:18;;;;;;;23.63;22.23;;;;;;;;;;5056869;28;20419;-85
2021/08/31 14:03:45;;;;;;;23.33;21.83;;;;;;;;;;5056068;28;20462;-88
2021/08/31 14:06:17;;;;;;;24.90;23.20;;;;;;;;;;5058630;28;20437;-93
2021/08/31 14:08:45;;;;;;;24.47;22.87;;;;;;;;;;5058744;28;20489;-86
2021/08/31 14:11:12;;;;;;;22.83;21.53;;;;;;;;;;5057495;28;20461;-86
2021/08/31 14:13:40;;;;;;;24.43;22.83;;;;;;;;;;5058434;28;20423;-86
2021/08/31 14:16:07;;;;;;;24.20;22.70;;;;;;;;;;5057676;28;20521;-86
2021/08/31 14:18:34;;;;;;;25.63;23.93;;;;;;;;;;5057596;28;20441;-88
2021/08/31 14:21:02;;;;;;;24.10;22.40;;;;;;;;;;5056824;28;20442;-88
2021/08/31 14:23:31;;;;;;;23.80;22.20;;;;;;;;;;5058314;28;20409;-88